Time;durP1;ratioP1;P1;durP2;ratioP2;P2;SDS_P1;SDS_P2;PMS_P1;PMS_P2;Temp;Humidity;BMP_temperature;BMP_pressure;BME280_temperature;BME280_humidity;BME280_pressure;Samples;Min_cycle;Max_cycle;Signal;HPM_P1;HPM_P2
2022/05/10 00:02:13;;;;;;;6.18;1.23;;;;;;;10.84;51.78;101033.41;5084809;28;20028;-69
2022/05/10 00:04:39;;;;;;;6.20;1.40;;;;;;;10.96;51.75;101019.56;5084688;28;20021;-70
2022/05/10 00:07:04;;;;;;;6.15;1.52;;;;;;;10.91;51.81;101016.94;5084672;28;20019;-72
2022/05/10 00:09:30;;;;;;;3.50;1.60;;;;;;;10.81;52.11;101030.81;5084751;28;20020;-69
2022/05/10 00:11:57;;;;;;;3.03;1.40;;;;;;;10.82;52.34;101006.56;5084608;28;20021;-72
2022/05/10 00:14:24;;;;;;;5.28;1.65;;;;;;;10.77;52.37;101012.63;5083741;28;20025;-70
2022/05/10 00:16:52;;;;;;;3.15;1.77;;;;;;;10.80;52.52;100996.16;5084476;28;20051;-70
2022/05/10 00:19:19;;;;;;;5.82;1.95;;;;;;;10.75;52.54;100988.38;5084370;28;20086;-69
2022/05/10 00:21:46;;;;;;;4.78;1.25;;;;;;;10.80;52.69;100990.13;5084256;28;20024;-71
2022/05/10 00:24:12;;;;;;;4.53;1.55;;;;;;;10.74;52.73;100996.16;5084309;28;20054;-70
2022/05/10 00:26:37;;;;;;;10.52;1.40;;;;;;;10.79;52.66;100997.03;5084318;28;20021;-69
2022/05/10 00:29:03;;;;;;;3.70;1.50;;;;;;;10.77;52.79;100996.16;5084237;28;20047;-70
2022/05/10 00:31:29;;;;;;;5.82;1.50;;;;;;;10.64;52.95;100983.19;5084165;28;20468;-70
2022/05/10 00:33:55;;;;;;;10.30;2.20;;;;;;;10.88;52.81;100991.84;5084134;28;20371;-71
2022/05/10 00:36:23;;;;;;;6.05;1.80;;;;;;;10.77;53.09;100985.78;5083804;28;20508;-69
2022/05/10 00:38:50;;;;;;;5.00;1.75;;;;;;;10.82;53.07;100975.38;5084206;28;20024;-70
2022/05/10 00:41:39;;;;;;;5.80;1.48;;;;;;;10.82;52.97;100968.47;5083866;28;20024;-68
2022/05/10 00:44:17;;;;;;;4.07;1.58;;;;;;;10.72;53.16;100961.56;5084163;28;20028;-70
2022/05/10 00:46:58;;;;;;;3.67;1.65;;;;;;;10.69;53.61;100961.56;5084171;28;20029;-68
2022/05/10 00:49:40;;;;;;;4.45;1.60;;;;;;;10.71;53.61;100950.31;5065656;28;20107;-69
2022/05/10 00:52:18;;;;;;;4.57;1.58;;;;;;;10.76;53.56;100952.91;5083956;28;20055;-69
2022/05/10 00:54:55;;;;;;;4.63;1.52;;;;;;;10.79;53.67;100945.09;5083872;28;20107;-71
2022/05/10 00:57:26;;;;;;;6.05;1.80;;;;;;;10.64;53.97;100952.03;5083576;28;20104;-72
2022/05/10 01:00:16;;;;;;;4.07;1.88;;;;;;;10.58;54.08;100949.44;5083795;28;20052;-69
2022/05/10 01:02:41;;;;;;;4.85;1.60;;;;;;;10.58;54.27;100946.84;5072905;28;20040;-68
2022/05/10 01:05:32;;;;;;;8.23;2.08;;;;;;;10.58;54.55;100948.56;5083153;28;20031;-69
2022/05/10 01:08:15;;;;;;;4.82;1.50;;;;;;;10.48;54.49;100935.56;5083511;28;20020;-68
2022/05/10 01:10:59;;;;;;;7.38;1.70;;;;;;;10.54;54.59;100934.72;5083530;28;20076;-69
2022/05/10 01:13:35;;;;;;;8.18;2.00;;;;;;;10.57;54.60;100929.53;5083527;28;20021;-69
2022/05/10 01:16:18;;;;;;;6.32;1.75;;;;;;;10.58;54.63;100930.38;5083544;28;20088;-70
2022/05/10 01:18:45;;;;;;;6.35;2.05;;;;;;;10.49;54.86;100920.88;5084286;28;20031;-69
2022/05/10 01:21:17;;;;;;;6.28;1.45;;;;;;;10.51;54.78;100921.75;5083249;28;20527;-68
2022/05/10 01:24:02;;;;;;;4.22;1.33;;;;;;;10.54;54.91;100912.22;5083251;28;20028;-71
2022/05/10 01:26:42;;;;;;;4.65;1.55;;;;;;;10.58;54.84;100907.88;5082874;28;20031;-68
2022/05/10 01:29:15;;;;;;;8.05;1.70;;;;;;;10.52;55.04;100907.91;5083410;28;20079;-68
2022/05/10 01:33:29;;;;;;;3.05;1.42;;;;;;;10.52;55.15;100895.78;5083077;28;20064;-71
2022/05/10 01:34:37;;;;;;;5.50;1.38;;;;;;;10.66;54.86;100892.31;5082793;28;20060;-70
2022/05/10 01:37:09;;;;;;;5.78;1.60;;;;;;;10.54;55.31;100891.44;5082861;28;20763;-68
2022/05/10 01:39:44;;;;;;;3.92;1.48;;;;;;;10.62;55.24;100881.03;5083510;28;20432;-70
2022/05/10 01:42:09;;;;;;;5.90;1.60;;;;;;;10.75;55.05;100886.25;5083352;28;20081;-70
2022/05/10 01:44:58;;;;;;;4.82;1.70;;;;;;;10.60;55.49;100866.34;5083099;28;20066;-70
2022/05/10 01:47:34;;;;;;;4.80;1.63;;;;;;;10.60;55.39;100864.63;5083207;28;20030;-70
2022/05/10 01:50:13;;;;;;;3.80;1.50;;;;;;;10.59;55.64;100873.25;5082867;28;20047;-71
2022/05/10 01:52:48;;;;;;;2.70;1.52;;;;;;;10.62;55.66;100862.88;5083199;28;20035;-69
2022/05/10 01:55:47;;;;;;;3.95;1.70;;;;;;;10.65;55.59;100857.66;5082911;28;20257;-68
2022/05/10 01:58:17;;;;;;;2.35;1.58;;;;;;;10.64;55.78;100858.56;5067742;28;20346;-70
2022/05/10 02:00:48;;;;;;;5.90;1.75;;;;;;;10.73;55.71;100851.63;5083098;28;20043;-70
2022/05/10 02:03:28;;;;;;;6.05;1.42;;;;;;;10.49;56.04;100840.41;5082946;28;20176;-69
2022/05/10 02:06:24;;;;;;;5.85;2.00;;;;;;;10.66;55.92;100836.06;5082822;28;20028;-70
2022/05/10 02:09:12;;;;;;;7.25;1.30;;;;;;;10.76;55.72;100833.44;5082887;28;20147;-71
2022/05/10 02:11:44;;;;;;;6.35;1.60;;;;;;;10.52;56.15;100833.47;5082864;28;20076;-69
2022/05/10 02:14:09;;;;;;;3.97;2.30;;;;;;;10.66;55.99;100825.66;5083238;28;20025;-69
2022/05/10 02:16:42;;;;;;;7.18;1.90;;;;;;;10.73;55.92;100818.75;5082534;28;20325;-69
2022/05/10 02:19:17;;;;;;;3.83;1.90;;;;;;;10.64;56.34;100819.59;5082695;28;20032;-72
2022/05/10 02:21:53;;;;;;;4.72;1.83;;;;;;;10.81;55.83;100808.31;5082677;28;20020;-68
2022/05/10 02:24:27;;;;;;;3.63;1.58;;;;;;;10.81;55.87;100797.06;5064411;28;20390;-70
2022/05/10 02:26:58;;;;;;;5.80;1.70;;;;;;;10.57;56.40;100799.72;5082649;28;20024;-71
2022/05/10 02:29:38;;;;;;;8.40;1.98;;;;;;;10.59;56.39;100795.38;5082788;28;20028;-69
2022/05/10 02:34:55;;;;;;;3.40;1.77;;;;;;;10.69;56.14;100782.41;5082548;28;20039;-71
2022/05/10 02:37:21;;;;;;;7.10;1.50;;;;;;;10.87;55.67;100769.34;5082579;28;20033;-74
2022/05/10 02:39:47;;;;;;;3.65;1.70;;;;;;;10.84;55.67;100765.88;5086233;28;20042;-71
2022/05/10 02:42:14;;;;;;;3.28;1.73;;;;;;;10.97;55.07;100751.13;5086147;28;20028;-73
2022/05/10 02:44:41;;;;;;;6.60;1.90;;;;;;;10.85;55.39;100755.47;5068227;28;20430;-70
2022/05/10 02:47:07;;;;;;;4.20;1.70;;;;;;;10.85;55.49;100734.72;5085897;28;20453;-73
2022/05/10 02:49:35;;;;;;;6.93;2.15;;;;;;;10.99;55.01;100741.59;5085946;28;20085;-70
2022/05/10 02:52:00;;;;;;;2.53;1.38;;;;;;;10.75;55.55;100733.88;5067992;28;20024;-70
2022/05/10 02:54:26;;;;;;;4.13;1.63;;;;;;;10.82;55.40;100736.44;5085942;28;20020;-73
2022/05/10 02:56:52;;;;;;;6.57;2.13;;;;;;;10.73;55.54;100729.56;5085632;28;20495;-73
2022/05/10 02:59:24;;;;;;;3.78;1.80;;;;;;;10.66;55.51;100720.94;5067635;28;20399;-69
2022/05/10 03:02:07;;;;;;;4.45;1.63;;;;;;;10.84;55.38;100720.00;5085832;28;20104;-74
2022/05/10 03:04:39;;;;;;;2.08;1.48;;;;;;;10.97;54.92;100709.56;5085531;28;20024;-73
2022/05/10 03:07:06;;;;;;;4.80;2.30;;;;;;;10.77;55.39;100707.91;5085715;28;20028;-71
2022/05/10 03:09:32;;;;;;;3.83;1.85;;;;;;;10.73;55.37;100712.25;5085662;28;20037;-70
2022/05/10 03:11:58;;;;;;;5.78;1.58;;;;;;;10.84;55.42;100694.03;5085781;28;20031;-73
2022/05/10 03:14:24;;;;;;;3.55;1.85;;;;;;;10.82;55.27;100674.97;5085694;28;20028;-74
2022/05/10 03:16:49;;;;;;;5.68;2.08;;;;;;;10.80;55.35;100681.91;5085551;28;20035;-71
2022/05/10 03:19:16;;;;;;;6.00;1.60;;;;;;;10.79;55.36;100675.00;5085305;28;20535;-69
2022/05/10 03:21:42;;;;;;;4.18;1.67;;;;;;;10.82;55.30;100659.41;5085542;28;20076;-70
2022/05/10 03:24:08;;;;;;;5.55;1.63;;;;;;;10.82;55.41;100654.22;5085320;28;20024;-70
2022/05/10 03:26:34;;;;;;;4.65;2.10;;;;;;;10.89;55.11;100650.69;5084845;28;20067;-72
2022/05/10 03:28:59;;;;;;;2.65;1.02;;;;;;;11.23;54.33;100628.81;5084357;28;20050;-72
2022/05/10 03:31:26;;;;;;;4.15;1.73;;;;;;;11.08;54.65;100648.00;5084709;28;20060;-71
2022/05/10 03:36:40;;;;;;;5.82;3.47;;;;;;;10.95;54.72;100629.03;5085225;28;20047;-69
2022/05/10 03:39:06;;;;;;;3.70;1.98;;;;;;;10.96;54.90;100617.75;5085374;28;20389;-71
2022/05/10 03:41:31;;;;;;;4.30;1.73;;;;;;;11.06;54.30;100613.38;5067000;28;20385;-74
2022/05/10 03:43:57;;;;;;;7.53;2.20;;;;;;;10.92;54.92;100618.66;5085085;28;20028;-68
2022/05/10 03:46:23;;;;;;;5.68;2.05;;;;;;;11.08;54.34;100609.03;5050334;28;20108;-69
2022/05/10 03:48:50;;;;;;;5.15;1.75;;;;;;;10.98;54.67;100602.16;5084781;28;20241;-71
2022/05/10 03:51:16;;;;;;;8.43;2.20;;;;;;;11.13;54.39;100602.03;5084783;28;20073;-72
2022/05/10 03:53:41;;;;;;;3.95;1.35;;;;;;;11.27;54.27;100590.69;5085115;28;20063;-73
2022/05/10 03:56:07;;;;;;;2.03;1.40;;;;;;;11.28;54.15;100587.19;5084671;28;20016;-72
2022/05/10 03:58:32;;;;;;;8.20;2.35;;;;;;;11.26;53.91;100587.22;5084750;28;20025;-69
2022/05/10 04:00:58;;;;;;;4.05;2.05;;;;;;;11.26;53.94;100576.81;5084849;28;20025;-69
2022/05/10 04:03:23;;;;;;;5.57;2.10;;;;;;;11.21;54.22;100585.53;5084798;28;20032;-70
2022/05/10 04:05:48;;;;;;;4.63;1.98;;;;;;;11.20;54.22;100584.66;5084480;28;20013;-69
2022/05/10 04:08:14;;;;;;;5.97;2.13;;;;;;;11.28;54.34;100584.59;5084491;28;20482;-68
2022/05/10 04:10:40;;;;;;;8.30;4.13;;;;;;;11.40;54.32;100583.66;5083636;28;20043;-71
2022/05/10 04:13:07;;;;;;;9.32;2.58;;;;;;;11.44;54.20;100579.28;5083484;28;20040;-67
2022/05/10 04:15:32;;;;;;;11.07;2.65;;;;;;;11.47;53.92;100571.47;5083282;28;20050;-71
2022/05/10 04:17:57;;;;;;;6.05;2.58;;;;;;;11.51;53.93;100576.63;5083655;28;20080;-68
2022/05/10 04:20:23;;;;;;;9.07;2.35;;;;;;;11.70;53.40;100566.03;5083893;28;20024;-68
2022/05/10 04:22:48;;;;;;;8.25;2.30;;;;;;;11.77;53.29;100562.47;5084045;28;20021;-68
2022/05/10 04:25:17;;;;;;;5.15;2.20;;;;;;;11.63;53.84;100554.81;5083835;28;20024;-69
2022/05/10 04:27:42;;;;;;;5.55;2.67;;;;;;;11.74;53.77;100561.66;5083868;28;20047;-69
2022/05/10 04:30:09;;;;;;;11.35;2.47;;;;;;;11.84;53.66;100552.00;5083949;28;20024;-64
2022/05/10 04:32:36;;;;;;;6.30;2.72;;;;;;;11.86;54.10;100540.72;5083886;28;20039;-68
2022/05/10 04:35:01;;;;;;;6.93;2.63;;;;;;;12.22;53.32;100548.09;5083694;28;20021;-70
2022/05/10 04:37:27;;;;;;;6.95;2.30;;;;;;;12.15;53.80;100541.25;5083565;28;20104;-69
2022/05/10 04:42:36;;;;;;;6.72;2.55;;;;;;;12.30;53.86;100523.72;5083809;28;20039;-71
2022/05/10 04:45:01;;;;;;;8.18;2.83;;;;;;;12.44;53.68;100532.19;5065808;28;20084;-69
2022/05/10 04:47:26;;;;;;;5.57;2.00;;;;;;;12.49;53.64;100534.75;5083656;28;20017;-69
2022/05/10 04:49:52;;;;;;;6.28;2.50;;;;;;;12.59;53.57;100519.81;5083569;28;20016;-70
2022/05/10 04:52:17;;;;;;;6.68;3.13;;;;;;;12.60;53.28;100517.19;5083495;28;20460;-69
2022/05/10 04:54:42;;;;;;;7.05;1.83;;;;;;;12.84;53.12;100512.47;5083504;28;20066;-72
2022/05/10 04:57:08;;;;;;;7.72;2.50;;;;;;;12.72;53.50;100513.56;5083256;28;20021;-68
2022/05/10 04:59:33;;;;;;;9.07;2.58;;;;;;;12.66;53.91;100510.16;5065439;28;20166;-70
2022/05/10 05:01:58;;;;;;;12.38;2.88;;;;;;;12.75;53.80;100510.91;5064605;28;20114;-70
2022/05/10 05:04:24;;;;;;;6.85;2.75;;;;;;;12.73;54.13;100515.25;5083128;28;20032;-68
2022/05/10 05:06:51;;;;;;;11.23;2.80;;;;;;;12.76;54.36;100520.41;5083135;28;20022;-69
2022/05/10 05:09:17;;;;;;;9.15;2.72;;;;;;;12.81;54.29;100515.13;5083638;28;20021;-69
2022/05/10 05:11:42;;;;;;;6.25;2.47;;;;;;;12.87;54.49;100520.28;5083479;28;20031;-69
2022/05/10 05:14:10;;;;;;;7.50;2.47;;;;;;;13.06;54.30;100517.34;5083250;28;20027;-69
2022/05/10 05:16:36;;;;;;;8.27;2.75;;;;;;;13.04;54.46;100516.50;5082801;28;20032;-69
2022/05/10 05:19:02;;;;;;;9.77;2.90;;;;;;;13.13;54.52;100528.53;5083175;28;20047;-69
2022/05/10 05:21:27;;;;;;;8.68;2.58;;;;;;;13.10;54.86;100533.81;5082965;28;20028;-68
2022/05/10 05:23:52;;;;;;;5.75;2.60;;;;;;;13.17;54.88;100524.13;5082993;28;20017;-70
2022/05/10 05:26:18;;;;;;;15.30;3.97;;;;;;;13.26;54.58;100521.34;5082734;28;20044;-67
2022/05/10 05:28:44;;;;;;;5.82;2.67;;;;;;;13.44;54.78;100529.72;5064772;28;20039;-68
2022/05/10 05:31:13;;;;;;;6.40;2.83;;;;;;;13.47;54.70;100524.44;5082831;28;20024;-68
2022/05/10 05:33:39;;;;;;;9.90;2.97;;;;;;;13.67;54.47;100518.03;5082744;28;20029;-67
2022/05/10 05:36:04;;;;;;;8.55;2.67;;;;;;;13.71;54.70;100498.81;5082476;28;20095;-68
2022/05/10 05:38:29;;;;;;;7.68;2.92;;;;;;;13.90;54.78;100491.47;5083136;28;20112;-68
2022/05/10 05:40:55;;;;;;;7.15;2.70;;;;;;;14.23;53.93;100494.22;5083339;28;20520;-68
2022/05/10 05:43:22;;;;;;;10.55;3.10;;;;;;;14.41;53.49;100488.66;5064852;28;20115;-68
2022/05/10 05:45:50;;;;;;;7.72;3.15;;;;;;;14.63;53.01;100481.16;5082655;28;20127;-68
2022/05/10 05:48:15;;;;;;;11.60;3.40;;;;;;;14.63;53.08;100481.16;5082810;28;20020;-69
2022/05/10 05:50:41;;;;;;;7.65;3.00;;;;;;;14.73;53.01;100489.59;5082605;28;20056;-68
2022/05/10 05:53:06;;;;;;;8.93;2.75;;;;;;;14.75;53.00;100506.13;5082769;28;20027;-67
2022/05/10 05:55:31;;;;;;;9.05;2.70;;;;;;;14.84;53.21;100505.91;5082439;28;20020;-68
2022/05/10 05:57:59;;;;;;;16.60;2.92;;;;;;;14.87;52.80;100490.16;5081927;28;20044;-68
2022/05/10 06:00:26;;;;;;;14.95;3.20;;;;;;;14.90;52.53;100485.75;5081892;28;20074;-67
2022/05/10 06:02:52;;;;;;;10.20;2.88;;;;;;;14.71;53.11;100494.88;5081812;28;20033;-68
2022/05/10 06:05:23;;;;;;;9.45;3.35;;;;;;;14.63;53.69;100487.22;5081866;28;20369;-69
2022/05/10 06:07:48;;;;;;;7.35;3.13;;;;;;;14.69;53.65;100483.63;5082213;28;20016;-68
2022/05/10 06:10:14;;;;;;;11.68;3.35;;;;;;;14.79;53.80;100480.78;5081989;28;20032;-68
2022/05/10 06:12:41;;;;;;;11.30;3.67;;;;;;;14.93;53.44;100475.22;5064951;28;20020;-69
2022/05/10 06:15:11;;;;;;;9.38;3.17;;;;;;;15.09;53.09;100465.22;5086085;28;20020;-68
2022/05/10 06:17:40;;;;;;;6.78;3.40;;;;;;;15.10;52.99;100459.97;5085873;28;20025;-68
2022/05/10 06:20:09;;;;;;;10.88;3.15;;;;;;;15.07;53.48;100467.91;5085665;28;20025;-68
2022/05/10 06:22:35;;;;;;;7.78;3.72;;;;;;;15.14;53.72;100465.97;5086156;28;20025;-68
2022/05/10 06:25:01;;;;;;;12.07;3.22;;;;;;;15.21;53.37;100456.19;5086032;28;20036;-68
2022/05/10 06:27:26;;;;;;;10.90;3.15;;;;;;;15.27;53.68;100456.03;5085921;28;20020;-69
2022/05/10 06:29:52;;;;;;;9.55;3.85;;;;;;;15.50;53.10;100457.16;5085925;28;20028;-68
2022/05/10 06:32:23;;;;;;;9.07;3.28;;;;;;;15.53;52.98;100441.38;5086024;28;20032;-68
2022/05/10 06:34:50;;;;;;;10.77;3.58;;;;;;;15.55;53.59;100460.50;5085924;28;20108;-69
2022/05/10 06:40:05;;;;;;;10.45;3.60;;;;;;;15.90;52.77;100441.19;5086061;28;20055;-68
2022/05/10 06:42:31;;;;;;;7.40;3.25;;;;;;;16.07;52.49;100449.41;5085577;28;20029;-68
2022/05/10 06:44:56;;;;;;;10.82;4.00;;;;;;;16.30;51.98;100442.59;5085693;28;20036;-69
2022/05/10 06:47:21;;;;;;;10.40;2.80;;;;;;;16.44;51.23;100439.53;5085648;28;20020;-69
2022/05/10 06:49:47;;;;;;;13.45;3.88;;;;;;;16.55;51.26;100452.28;5085442;28;20017;-69
2022/05/10 06:52:16;;;;;;;13.32;4.20;;;;;;;16.75;50.84;100448.16;5085558;28;20433;-68
2022/05/10 06:54:41;;;;;;;11.68;4.07;;;;;;;16.99;50.35;100445.59;5067531;28;20039;-68
2022/05/10 06:57:07;;;;;;;13.35;3.53;;;;;;;17.13;49.85;100423.28;5085318;28;20028;-69
2022/05/10 06:59:32;;;;;;;7.80;3.28;;;;;;;17.25;49.89;100425.50;5085470;28;20035;-68
2022/05/10 07:01:58;;;;;;;12.60;3.47;;;;;;;17.55;49.69;100421.78;5067288;28;20028;-68
2022/05/10 07:04:23;;;;;;;8.68;2.83;;;;;;;17.89;48.74;100424.91;5085103;28;20161;-68
2022/05/10 07:06:48;;;;;;;14.57;4.35;;;;;;;18.15;48.40;100420.41;5085178;28;20169;-68
2022/05/10 07:09:14;;;;;;;14.95;4.07;;;;;;;18.45;46.82;100423.56;5084994;28;20139;-68
2022/05/10 07:11:40;;;;;;;8.07;3.95;;;;;;;18.65;46.17;100419.25;5085269;28;20546;-69
2022/05/10 07:14:05;;;;;;;10.70;4.05;;;;;;;18.92;45.88;100407.59;5085096;28;20024;-69
2022/05/10 07:16:30;;;;;;;14.90;4.40;;;;;;;19.01;44.84;100415.09;5084929;28;20016;-69
2022/05/10 07:18:56;;;;;;;15.23;4.30;;;;;;;18.93;44.80;100404.06;5084978;28;20017;-69
2022/05/10 07:21:21;;;;;;;13.45;4.28;;;;;;;18.99;44.76;100406.44;5084667;28;20495;-69
2022/05/10 07:23:46;;;;;;;8.75;4.22;;;;;;;19.11;44.17;100393.66;5084452;28;20016;-73
2022/05/10 07:26:12;;;;;;;12.60;4.20;;;;;;;19.05;44.48;100400.03;5084580;28;20429;-69
2022/05/10 07:28:37;;;;;;;10.07;4.30;;;;;;;19.04;44.56;100393.91;5083901;28;20043;-68
2022/05/10 07:31:02;;;;;;;13.13;4.07;;;;;;;19.03;44.16;100400.09;5084115;28;20029;-69
2022/05/10 07:33:29;;;;;;;11.57;3.53;;;;;;;19.05;43.99;100393.00;5084724;28;20048;-68
2022/05/10 07:38:40;;;;;;;19.13;4.50;;;;;;;18.99;43.63;100392.41;5084718;28;20428;-69
2022/05/10 07:41:05;;;;;;;10.70;4.15;;;;;;;18.88;44.01;100382.38;5084486;28;20060;-69
2022/05/10 07:43:35;;;;;;;12.45;4.05;;;;;;;18.98;43.70;100385.44;5084735;28;20021;-69
2022/05/10 07:46:00;;;;;;;10.27;4.00;;;;;;;19.10;43.23;100387.56;5084574;28;20020;-68
2022/05/10 07:48:25;;;;;;;13.68;4.70;;;;;;;19.08;43.15;100390.22;5084516;28;20017;-69
2022/05/10 07:50:51;;;;;;;10.85;4.00;;;;;;;18.93;42.51;100391.75;5084195;28;20115;-70
2022/05/10 07:53:16;;;;;;;11.15;5.53;;;;;;;18.87;42.06;100385.91;5084615;28;20472;-69
2022/05/10 07:55:44;;;;;;;11.52;4.63;;;;;;;18.56;43.06;100377.56;5084210;28;20446;-69
2022/05/10 07:58:09;;;;;;;10.55;4.25;;;;;;;18.45;43.64;100388.56;5084227;28;20036;-69
2022/05/10 08:00:38;;;;;;;10.75;5.38;;;;;;;18.21;43.95;100375.50;5084192;28;20017;-71
2022/05/10 08:03:09;;;;;;;13.88;4.80;;;;;;;18.06;44.50;100380.44;5084296;28;20020;-69
2022/05/10 08:05:34;;;;;;;9.23;4.23;;;;;;;18.11;44.32;100368.88;5083777;28;20428;-71
2022/05/10 08:07:59;;;;;;;15.63;4.78;;;;;;;18.09;44.39;100363.69;5084131;28;20427;-69
2022/05/10 08:10:25;;;;;;;9.60;4.50;;;;;;;18.24;43.22;100375.38;5083489;28;20080;-68
2022/05/10 08:12:50;;;;;;;11.98;4.32;;;;;;;18.12;43.38;100373.22;5083182;28;20044;-69
2022/05/10 08:15:15;;;;;;;15.40;4.97;;;;;;;18.12;43.79;100373.22;5083904;28;20036;-69
2022/05/10 08:17:41;;;;;;;13.73;5.38;;;;;;;18.22;42.97;100374.59;5083846;28;20021;-69
2022/05/10 08:20:06;;;;;;;9.00;4.55;;;;;;;18.08;42.70;100375.94;5083500;28;20028;-68
2022/05/10 08:22:32;;;;;;;12.00;4.90;;;;;;;17.83;44.06;100361.19;5083824;28;20031;-69
2022/05/10 08:24:58;;;;;;;17.15;5.28;;;;;;;17.68;44.57;100362.63;5083968;28;20073;-69
2022/05/10 08:27:24;;;;;;;12.60;4.95;;;;;;;17.51;44.45;100368.53;5083680;28;20050;-69
2022/05/10 08:29:49;;;;;;;15.18;5.70;;;;;;;17.32;45.33;100356.13;5083869;28;20016;-69
2022/05/10 08:32:15;;;;;;;11.52;4.85;;;;;;;17.13;45.51;100349.84;5083717;28;20032;-69
2022/05/10 08:34:41;;;;;;;12.27;4.55;;;;;;;16.93;45.80;100339.13;5082912;28;20031;-69
2022/05/10 08:37:06;;;;;;;16.25;6.07;;;;;;;16.88;46.07;100348.09;5082816;28;20104;-69
2022/05/10 08:39:32;;;;;;;13.52;4.78;;;;;;;16.79;46.24;100339.63;5083109;28;20020;-68
2022/05/10 08:42:01;;;;;;;10.70;5.38;;;;;;;16.63;46.54;100330.63;5083415;28;20020;-69
2022/05/10 08:44:29;;;;;;;11.38;4.95;;;;;;;16.63;46.86;100343.72;5083406;28;20095;-70
2022/05/10 08:46:58;;;;;;;16.90;5.55;;;;;;;16.55;46.95;100342.22;5083137;28;20024;-70
2022/05/10 08:49:43;;;;;;;9.23;4.93;;;;;;;16.43;47.23;100347.88;5083181;28;20407;-68
2022/05/10 08:52:12;;;;;;;13.60;4.68;;;;;;;16.32;47.72;100345.63;5083573;28;20095;-69
2022/05/10 08:54:40;;;;;;;17.20;4.55;;;;;;;16.24;48.06;100348.50;5083168;28;20028;-68
2022/05/10 08:57:15;;;;;;;20.60;6.47;;;;;;;16.20;48.42;100345.13;5083203;28;20111;-69
2022/05/10 08:59:58;;;;;;;14.82;5.80;;;;;;;16.26;47.89;100338.84;5083284;28;20514;-68
2022/05/10 09:02:47;;;;;;;16.08;5.47;;;;;;;16.17;47.83;100336.50;5083354;28;20217;-69
2022/05/10 09:05:38;;;;;;;16.67;5.35;;;;;;;16.12;48.19;100331.41;5082821;28;20437;-68
2022/05/10 09:08:31;;;;;;;12.85;5.30;;;;;;;16.17;48.08;100323.41;5083123;28;20042;-71
2022/05/10 09:11:00;;;;;;;14.40;6.00;;;;;;;16.21;48.13;100317.19;5083099;28;20020;-69
2022/05/10 09:13:26;;;;;;;13.60;5.95;;;;;;;16.29;48.30;100322.16;5083034;28;20055;-68
2022/05/10 09:15:59;;;;;;;13.85;6.20;;;;;;;16.37;48.43;100319.28;5082015;28;20025;-70
2022/05/10 09:18:27;;;;;;;13.80;6.70;;;;;;;16.37;48.92;100319.28;5081986;28;20085;-70
2022/05/10 09:21:14;;;;;;;14.15;7.35;;;;;;;16.27;49.31;100319.59;5082052;28;20046;-69
2022/05/10 09:24:10;;;;;;;17.15;6.90;;;;;;;16.19;49.70;100347.78;5082012;28;20025;-69
2022/05/10 09:26:39;;;;;;;15.18;6.22;;;;;;;16.06;50.56;100340.34;5081895;28;20025;-69
2022/05/10 09:29:17;;;;;;;17.90;5.70;;;;;;;15.92;51.48;100332.03;5082882;28;20325;-69
2022/05/10 09:34:46;;;;;;;14.65;5.55;;;;;;;15.55;53.98;100334.03;5082830;28;20035;-70
2022/05/10 09:37:43;;;;;;;15.70;5.63;;;;;;;15.40;54.86;100317.91;5082425;28;20055;-70
2022/05/10 09:40:08;;;;;;;16.40;6.53;;;;;;;15.25;55.58;100324.47;5082811;28;20237;-69
2022/05/10 09:42:35;;;;;;;16.92;6.93;;;;;;;15.08;56.51;100325.78;5082799;28;20028;-70
2022/05/10 09:45:00;;;;;;;15.57;6.60;;;;;;;15.03;57.28;100321.63;5082819;28;20025;-69
2022/05/10 09:47:26;;;;;;;15.40;5.43;;;;;;;14.93;57.88;100327.09;5082272;28;20084;-68
2022/05/10 09:49:51;;;;;;;18.52;6.70;;;;;;;14.86;58.82;100310.72;5082380;28;20050;-68
2022/05/10 09:52:27;;;;;;;19.00;6.35;;;;;;;14.76;59.45;100309.22;5082546;28;20325;-68
2022/05/10 09:54:56;;;;;;;17.42;6.75;;;;;;;14.69;60.05;100305.94;5082538;28;20036;-68
2022/05/10 09:57:29;;;;;;;15.95;7.15;;;;;;;14.62;60.16;100312.22;5082312;28;20028;-69
2022/05/10 09:59:55;;;;;;;26.75;8.23;;;;;;;14.59;60.27;100309.69;5064263;28;20028;-69
2022/05/10 10:02:28;;;;;;;19.20;7.22;;;;;;;14.44;60.95;100303.13;5082292;28;20102;-68
2022/05/10 10:04:53;;;;;;;24.10;7.95;;;;;;;14.28;61.89;100306.13;5082174;28;20038;-68
2022/05/10 10:07:22;;;;;;;17.55;6.80;;;;;;;14.16;62.42;100302.06;5081887;28;20044;-69
2022/05/10 10:10:15;;;;;;;19.60;7.72;;;;;;;14.04;63.73;100308.44;5063963;28;20024;-68
2022/05/10 10:12:44;;;;;;;24.48;9.00;;;;;;;13.93;63.99;100297.44;5070927;28;20033;-68
2022/05/10 10:15:32;;;;;;;16.83;7.68;;;;;;;13.85;64.81;100293.25;5082130;28;20066;-67
2022/05/10 10:18:04;;;;;;;18.48;8.40;;;;;;;13.87;64.64;100296.69;5082001;28;20021;-68
2022/05/10 10:20:50;;;;;;;21.55;8.45;;;;;;;13.80;65.72;100286.44;5082014;28;20024;-67
2022/05/10 10:23:29;;;;;;;21.15;9.27;;;;;;;13.77;65.68;100281.28;5082472;28;20469;-67
2022/05/10 10:25:59;;;;;;;18.65;8.55;;;;;;;13.80;65.99;100279.44;5082381;28;20039;-68
2022/05/10 10:28:48;;;;;;;24.55;8.95;;;;;;;13.83;65.57;100265.47;5082104;28;20044;-68
2022/05/10 10:31:34;;;;;;;18.80;9.07;;;;;;;13.72;66.04;100274.41;5081999;28;20016;-68
2022/05/10 10:34:09;;;;;;;24.63;9.00;;;;;;;13.60;66.53;100270.34;5064136;28;20025;-67
2022/05/10 10:36:45;;;;;;;18.55;9.10;;;;;;;13.55;66.75;100253.94;5081614;28;20048;-67
2022/05/10 10:39:24;;;;;;;21.88;10.27;;;;;;;13.39;67.33;100266.44;5081869;28;20032;-66
2022/05/10 10:42:24;;;;;;;14.00;9.50;;;;;;;13.29;68.27;100259.72;5081994;28;20024;-66
2022/05/10 10:45:00;;;;;;;19.70;8.23;;;;;;;13.22;68.39;100259.00;5081898;28;20024;-67
2022/05/10 10:47:42;;;;;;;20.42;9.07;;;;;;;13.09;69.02;100251.47;5081810;28;20016;-65
2022/05/10 10:50:13;;;;;;;18.05;10.20;;;;;;;13.14;69.16;100267.84;5081732;28;20035;-66
2022/05/10 10:52:39;;;;;;;19.23;10.17;;;;;;;13.16;69.80;100264.34;5082348;28;20104;-67
2022/05/10 10:55:07;;;;;;;17.83;9.35;;;;;;;13.07;70.33;100255.84;5081872;28;20028;-65
2022/05/10 10:57:49;;;;;;;22.40;9.00;;;;;;;12.95;71.19;100266.50;5081500;28;20060;-65
2022/05/10 11:00:19;;;;;;;;;;;;;;;12.86;72.17;100252.78;5085741;28;20021;-65
2022/05/10 11:03:03;;;;;;;23.02;11.43;;;;;;;12.79;71.37;100251.22;5085239;28;19912;-66
2022/05/10 11:05:53;;;;;;;20.10;9.60;;;;;;;12.71;72.14;100258.31;5084854;28;20051;-66
2022/05/10 11:08:40;;;;;;;26.23;10.98;;;;;;;12.62;72.45;100252.38;5085106;28;20044;-66
2022/05/10 11:11:47;;;;;;;28.38;12.65;;;;;;;12.58;72.77;100263.75;5085164;28;20024;-66
2022/05/10 11:14:28;;;;;;;26.35;11.88;;;;;;;12.59;73.31;100251.56;5084893;28;20055;-66
2022/05/10 11:17:10;;;;;;;22.90;11.52;;;;;;;12.53;73.56;100249.97;5084737;28;20021;-67
2022/05/10 11:20:01;;;;;;;29.80;12.57;;;;;;;12.52;74.15;100254.31;5084861;28;20024;-67
2022/05/10 11:22:36;;;;;;;23.08;12.07;;;;;;;12.45;74.91;100254.44;5084988;28;20089;-68
2022/05/10 11:25:26;;;;;;;34.15;12.50;;;;;;;12.34;75.71;100254.66;5066553;28;20044;-68
2022/05/10 11:28:20;;;;;;;25.50;14.73;;;;;;;12.21;76.07;100254.00;5083765;28;20024;-65
2022/05/10 11:31:14;;;;;;;20.42;11.88;;;;;;;12.08;77.59;100245.56;5047379;28;20059;-64
2022/05/10 11:34:13;;;;;;;16.52;8.80;;;;;;;12.05;78.31;100254.25;5085045;28;20024;-64
2022/05/10 11:36:44;;;;;;;28.10;14.32;;;;;;;12.10;78.16;100252.47;5084293;28;20069;-64
2022/05/10 11:39:23;;;;;;;21.50;12.90;;;;;;;12.07;79.21;100236.00;5084610;28;20067;-64
2022/05/10 11:42:20;;;;;;;25.95;11.05;;;;;;;12.02;80.16;100243.91;5084682;28;20100;-64
2022/05/10 11:45:11;;;;;;;17.52;8.82;;;;;;;11.96;81.05;100249.22;5084578;28;20035;-64
2022/05/10 11:48:05;;;;;;;21.25;12.15;;;;;;;11.92;81.68;100242.34;5084541;28;20040;-65
2022/05/10 11:51:38;;;;;;;22.75;12.38;;;;;;;11.92;81.78;100234.53;5084689;28;20392;-68
2022/05/10 11:53:45;;;;;;;27.20;12.48;;;;;;;11.95;82.38;100227.53;5084369;28;20032;-65
2022/05/10 11:56:11;;;;;;;29.50;12.75;;;;;;;11.94;82.87;100217.16;5084213;28;20033;-65
2022/05/10 11:58:37;;;;;;;25.52;13.02;;;;;;;11.97;83.08;100207.56;5084455;28;20031;-66